sensor_id;sensor_type;location;lat;lon;timestamp;pressure;altitude;pressure_sealevel;temperature;humidity
50342;BME280;76053;42.682;23.286;2024-03-23T00:55:22;94848.31;;;22.78;59.37
50342;BME280;76053;42.682;23.286;2024-03-23T00:58:22;94842.91;;;22.74;59.10
50342;BME280;76053;42.682;23.286;2024-03-23T01:01:23;94843.69;;;22.71;59.45
50342;BME280;76053;42.682;23.286;2024-03-23T01:04:23;94843.69;;;22.71;59.72
50342;BME280;76053;42.682;23.286;2024-03-23T01:07:23;94838.25;;;22.68;59.57
50342;BME280;76053;42.682;23.286;2024-03-23T01:10:24;94837.13;;;22.65;59.61
50342;BME280;76053;42.682;23.286;2024-03-23T01:13:24;94836.75;;;22.63;59.69
50342;BME280;76053;42.682;23.286;2024-03-23T01:16:25;94836.00;;;22.59;59.38
50342;BME280;76053;42.682;23.286;2024-03-23T01:19:25;94838.34;;;22.57;59.59
50342;BME280;76053;42.682;23.286;2024-03-23T01:22:25;94832.13;;;22.57;59.90
50342;BME280;76053;42.682;23.286;2024-03-23T01:25:26;94836.81;;;22.53;59.45
50342;BME280;76053;42.682;23.286;2024-03-23T01:28:26;94848.13;;;22.51;59.67
50342;BME280;76053;42.682;23.286;2024-03-23T01:31:27;94831.81;;;22.48;60.01
50342;BME280;76053;42.682;23.286;2024-03-23T01:34:27;94837.69;;;22.46;59.86
50342;BME280;76053;42.682;23.286;2024-03-23T01:37:28;94840.41;;;22.43;59.99
50342;BME280;76053;42.682;23.286;2024-03-23T01:40:28;94836.13;;;22.42;59.90
50342;BME280;76053;42.682;23.286;2024-03-23T01:43:28;94833.44;;;22.38;60.38
50342;BME280;76053;42.682;23.286;2024-03-23T01:46:29;94825.66;;;22.37;60.34
50342;BME280;76053;42.682;23.286;2024-03-23T01:49:29;94836.19;;;22.35;60.41
50342;BME280;76053;42.682;23.286;2024-03-23T01:52:30;94835.03;;;22.32;60.38
50342;BME280;76053;42.682;23.286;2024-03-23T01:55:31;94835.03;;;22.32;60.42
50342;BME280;76053;42.682;23.286;2024-03-23T01:58:32;94829.22;;;22.30;60.36
50342;BME280;76053;42.682;23.286;2024-03-23T02:01:34;94829.63;;;22.28;60.24
50342;BME280;76053;42.682;23.286;2024-03-23T02:04:35;94838.97;;;22.27;60.51
50342;BME280;76053;42.682;23.286;2024-03-23T02:07:35;94834.31;;;22.24;60.18
50342;BME280;76053;42.682;23.286;2024-03-23T02:10:36;94837.81;;;22.25;60.33
50342;BME280;76053;42.682;23.286;2024-03-23T02:13:36;94838.59;;;22.22;60.42
50342;BME280;76053;42.682;23.286;2024-03-23T02:16:36;94828.50;;;22.22;60.34
50342;BME280;76053;42.682;23.286;2024-03-23T02:19:38;94833.16;;;22.22;60.14
50342;BME280;76053;42.682;23.286;2024-03-23T02:22:38;94836.66;;;22.22;60.11
50342;BME280;76053;42.682;23.286;2024-03-23T02:25:39;94837.06;;;22.21;60.30
50342;BME280;76053;42.682;23.286;2024-03-23T02:28:39;94847.59;;;22.19;60.04
50342;BME280;76053;42.682;23.286;2024-03-23T02:31:40;94847.97;;;22.17;60.33
50342;BME280;76053;42.682;23.286;2024-03-23T02:34:40;94839.84;;;22.14;60.34
50342;BME280;76053;42.682;23.286;2024-03-23T02:37:41;94843.72;;;22.13;60.16
50342;BME280;76053;42.682;23.286;2024-03-23T02:40:41;94850.34;;;22.12;60.55
50342;BME280;76053;42.682;23.286;2024-03-23T02:43:41;94837.16;;;22.10;60.03
50342;BME280;76053;42.682;23.286;2024-03-23T02:46:42;94839.47;;;22.08;60.29
50342;BME280;76053;42.682;23.286;2024-03-23T02:49:42;94843.78;;;22.06;60.18
50342;BME280;76053;42.682;23.286;2024-03-23T02:52:43;94838.34;;;22.06;60.40
50342;BME280;76053;42.682;23.286;2024-03-23T02:55:43;94827.84;;;22.04;60.23
50342;BME280;76053;42.682;23.286;2024-03-23T02:58:43;94842.63;;;22.03;60.37
50342;BME280;76053;42.682;23.286;2024-03-23T03:01:44;94832.91;;;22.02;60.33
50342;BME280;76053;42.682;23.286;2024-03-23T03:04:44;94837.59;;;22.02;60.04
50342;BME280;76053;42.682;23.286;2024-03-23T03:07:45;94840.72;;;22.00;60.56
50342;BME280;76053;42.682;23.286;2024-03-23T03:10:45;94836.81;;;21.98;60.06
50342;BME280;76053;42.682;23.286;2024-03-23T03:13:45;94838.75;;;21.97;60.21
50342;BME280;76053;42.682;23.286;2024-03-23T03:16:46;94834.50;;;21.96;60.27
50342;BME280;76053;42.682;23.286;2024-03-23T03:19:46;94837.63;;;21.95;60.24
50342;BME280;76053;42.682;23.286;2024-03-23T03:22:46;94837.97;;;21.93;60.49
50342;BME280;76053;42.682;23.286;2024-03-23T03:25:47;94841.88;;;21.92;60.49
50342;BME280;76053;42.682;23.286;2024-03-23T03:28:47;94841.13;;;21.92;60.52
50342;BME280;76053;42.682;23.286;2024-03-23T03:31:47;94840.34;;;21.91;60.64
50342;BME280;76053;42.682;23.286;2024-03-23T03:34:48;94836.84;;;21.90;60.65
50342;BME280;76053;42.682;23.286;2024-03-23T03:37:48;94841.50;;;21.90;60.72
50342;BME280;76053;42.682;23.286;2024-03-23T03:40:49;94840.72;;;21.89;60.57
50342;BME280;76053;42.682;23.286;2024-03-23T03:43:49;94842.69;;;21.89;60.90
50342;BME280;76053;42.682;23.286;2024-03-23T03:46:49;94846.19;;;21.89;60.51
50342;BME280;76053;42.682;23.286;2024-03-23T03:49:50;94843.84;;;21.88;60.90
50342;BME280;76053;42.682;23.286;2024-03-23T03:52:50;94839.19;;;21.88;60.78
50342;BME280;76053;42.682;23.286;2024-03-23T03:55:51;94851.22;;;21.87;60.47
50342;BME280;76053;42.682;23.286;2024-03-23T03:58:51;94842.28;;;21.87;60.68
50342;BME280;76053;42.682;23.286;2024-03-23T04:01:51;94845.00;;;21.87;60.98
50342;BME280;76053;42.682;23.286;2024-03-23T04:04:52;94844.66;;;21.85;61.06
50342;BME280;76053;42.682;23.286;2024-03-23T04:07:52;94847.38;;;21.85;60.66
50342;BME280;76053;42.682;23.286;2024-03-23T04:10:53;94843.88;;;21.84;60.90
50342;BME280;76053;42.682;23.286;2024-03-23T04:13:53;94846.59;;;21.84;60.63
50342;BME280;76053;42.682;23.286;2024-03-23T04:16:54;94846.19;;;21.82;60.81
50342;BME280;76053;42.682;23.286;2024-03-23T04:19:55;94847.75;;;21.83;60.97
50342;BME280;76053;42.682;23.286;2024-03-23T04:22:56;94850.13;;;21.81;60.54
50342;BME280;76053;42.682;23.286;2024-03-23T04:26:03;94842.72;;;21.78;60.95
50342;BME280;76053;42.682;23.286;2024-03-23T04:29:03;94845.44;;;21.78;60.74
50342;BME280;76053;42.682;23.286;2024-03-23T04:32:04;94855.16;;;21.79;60.87
50342;BME280;76053;42.682;23.286;2024-03-23T04:35:04;94852.84;;;21.78;60.69
50342;BME280;76053;42.682;23.286;2024-03-23T04:38:05;94847.81;;;21.76;60.73
50342;BME280;76053;42.682;23.286;2024-03-23T04:41:05;94859.44;;;21.77;60.84
50342;BME280;76053;42.682;23.286;2024-03-23T04:44:06;94856.72;;;21.77;60.83
50342;BME280;76053;42.682;23.286;2024-03-23T04:47:06;94857.91;;;21.76;60.82
50342;BME280;76053;42.682;23.286;2024-03-23T04:50:07;94860.25;;;21.74;60.73
50342;BME280;76053;42.682;23.286;2024-03-23T04:53:07;94862.56;;;21.75;60.91
50342;BME280;76053;42.682;23.286;2024-03-23T04:56:08;94869.97;;;21.75;60.49
50342;BME280;76053;42.682;23.286;2024-03-23T04:59:08;94875.41;;;21.75;60.48
50342;BME280;76053;42.682;23.286;2024-03-23T05:02:08;94869.19;;;21.74;60.79
50342;BME280;76053;42.682;23.286;2024-03-23T05:05:09;94862.56;;;21.75;60.88
50342;BME280;76053;42.682;23.286;2024-03-23T05:08:09;94864.53;;;21.75;60.41
50342;BME280;76053;42.682;23.286;2024-03-23T05:11:10;94856.38;;;21.75;60.49
50342;BME280;76053;42.682;23.286;2024-03-23T05:14:13;94868.81;;;21.76;60.68
50342;BME280;76053;42.682;23.286;2024-03-23T05:17:13;94862.56;;;21.75;60.58
50342;BME280;76053;42.682;23.286;2024-03-23T05:20:14;94854.00;;;21.77;60.86
50342;BME280;76053;42.682;23.286;2024-03-23T05:23:14;94862.94;;;21.77;60.68
50342;BME280;76053;42.682;23.286;2024-03-23T05:26:15;94858.28;;;21.78;61.02
50342;BME280;76053;42.682;23.286;2024-03-23T05:29:15;94848.16;;;21.78;61.13
50342;BME280;76053;42.682;23.286;2024-03-23T05:32:15;94857.88;;;21.79;61.04
50342;BME280;76053;42.682;23.286;2024-03-23T05:35:16;94864.13;;;21.80;60.96
50342;BME280;76053;42.682;23.286;2024-03-23T05:38:16;94868.38;;;21.81;60.92
50342;BME280;76053;42.682;23.286;2024-03-23T05:41:16;94861.00;;;21.81;60.88
50342;BME280;76053;42.682;23.286;2024-03-23T05:44:17;94860.22;;;21.81;60.75
50342;BME280;76053;42.682;23.286;2024-03-23T05:47:17;94863.72;;;21.81;60.78
50342;BME280;76053;42.682;23.286;2024-03-23T05:50:17;94862.53;;;21.82;60.84
50342;BME280;76053;42.682;23.286;2024-03-23T05:53:19;94860.59;;;21.83;60.77
50342;BME280;76053;42.682;23.286;2024-03-23T05:56:20;94857.88;;;21.83;60.90
50342;BME280;76053;42.682;23.286;2024-03-23T05:59:20;94864.09;;;21.83;60.75
50342;BME280;76053;42.682;23.286;2024-03-23T06:02:21;94857.47;;;21.84;60.72
50342;BME280;76053;42.682;23.286;2024-03-23T06:05:21;94857.88;;;21.86;60.88
50342;BME280;76053;42.682;23.286;2024-03-23T06:08:22;94854.75;;;21.84;60.79
50342;BME280;76053;42.682;23.286;2024-03-23T06:11:22;94855.16;;;21.86;60.65
50342;BME280;76053;42.682;23.286;2024-03-23T06:14:23;94856.66;;;21.87;60.57
50342;BME280;76053;42.682;23.286;2024-03-23T06:17:23;94860.94;;;21.88;60.61
50342;BME280;76053;42.682;23.286;2024-03-23T06:20:24;94854.72;;;21.88;60.87
50342;BME280;76053;42.682;23.286;2024-03-23T06:23:24;94852.00;;;21.88;60.43
50342;BME280;76053;42.682;23.286;2024-03-23T06:26:25;94846.56;;;21.88;60.86
50342;BME280;76053;42.682;23.286;2024-03-23T06:29:25;94858.22;;;21.88;60.82
50342;BME280;76053;42.682;23.286;2024-03-23T06:32:27;94848.50;;;21.87;60.57
50342;BME280;76053;42.682;23.286;2024-03-23T06:35:27;94848.91;;;21.89;60.77
50342;BME280;76053;42.682;23.286;2024-03-23T06:38:31;94848.13;;;21.89;60.67
50342;BME280;76053;42.682;23.286;2024-03-23T06:41:31;94849.69;;;21.90;60.44
50342;BME280;76053;42.682;23.286;2024-03-23T06:44:32;94855.13;;;21.90;60.32
50342;BME280;76053;42.682;23.286;2024-03-23T06:47:32;94853.19;;;21.90;60.59
50342;BME280;76053;42.682;23.286;2024-03-23T06:50:33;94851.22;;;21.91;60.57
50342;BME280;76053;42.682;23.286;2024-03-23T06:53:33;94853.94;;;21.91;60.40
50342;BME280;76053;42.682;23.286;2024-03-23T06:56:33;94857.44;;;21.92;60.58
50342;BME280;76053;42.682;23.286;2024-03-23T06:59:34;94854.31;;;21.93;60.47
50342;BME280;76053;42.682;23.286;2024-03-23T07:02:34;94850.06;;;21.96;60.82
50342;BME280;76053;42.682;23.286;2024-03-23T07:05:35;94851.22;;;21.98;60.41
50342;BME280;76053;42.682;23.286;2024-03-23T07:08:35;94847.72;;;22.01;60.33
50342;BME280;76053;42.682;23.286;2024-03-23T07:11:35;94847.28;;;22.03;60.68
50342;BME280;76053;42.682;23.286;2024-03-23T07:14:36;94839.13;;;22.06;60.36
50342;BME280;76053;42.682;23.286;2024-03-23T07:17:36;94852.72;;;22.06;58.20
50342;BME280;76053;42.682;23.286;2024-03-23T07:20:37;94841.50;;;21.94;56.91
50342;BME280;76053;42.682;23.286;2024-03-23T07:23:56;94833.75;;;21.85;58.73
50342;BME280;76053;42.682;23.286;2024-03-23T07:26:56;94829.47;;;21.87;58.06
50342;BME280;76053;42.682;23.286;2024-03-23T07:29:56;94831.41;;;21.90;58.23
50342;BME280;76053;42.682;23.286;2024-03-23T07:32:57;94824.00;;;21.95;57.72
50342;BME280;76053;42.682;23.286;2024-03-23T07:35:57;94828.25;;;21.99;57.78
50342;BME280;76053;42.682;23.286;2024-03-23T07:38:58;94825.16;;;22.01;57.78
50342;BME280;76053;42.682;23.286;2024-03-23T07:41:58;94815.03;;;22.01;58.13
50342;BME280;76053;42.682;23.286;2024-03-23T07:44:58;94818.91;;;22.04;57.97
50342;BME280;76053;42.682;23.286;2024-03-23T07:47:59;94815.00;;;22.05;57.70
50342;BME280;76053;42.682;23.286;2024-03-23T07:54:04;94809.94;;;22.07;58.20
50342;BME280;76053;42.682;23.286;2024-03-23T07:57:04;94806.03;;;22.08;58.28
50342;BME280;76053;42.682;23.286;2024-03-23T08:00:05;94814.97;;;22.08;58.26
50342;BME280;76053;42.682;23.286;2024-03-23T08:03:06;94810.31;;;22.09;58.14
50342;BME280;76053;42.682;23.286;2024-03-23T08:06:17;94809.19;;;22.06;58.02
50342;BME280;76053;42.682;23.286;2024-03-23T08:09:17;94803.69;;;22.10;58.04
50342;BME280;76053;42.682;23.286;2024-03-23T08:12:18;94812.66;;;22.10;58.08
50342;BME280;76053;42.682;23.286;2024-03-23T08:15:18;94805.25;;;22.11;58.32
50342;BME280;76053;42.682;23.286;2024-03-23T08:18:18;94803.31;;;22.11;58.15
50342;BME280;76053;42.682;23.286;2024-03-23T08:21:19;94801.34;;;22.12;58.01
50342;BME280;76053;42.682;23.286;2024-03-23T08:24:19;94795.50;;;22.13;58.11
50342;BME280;76053;42.682;23.286;2024-03-23T08:27:20;94801.72;;;22.14;58.06
50342;BME280;76053;42.682;23.286;2024-03-23T08:30:20;94796.28;;;22.14;58.22
50342;BME280;76053;42.682;23.286;2024-03-23T08:33:21;94793.56;;;22.14;58.32
50342;BME280;76053;42.682;23.286;2024-03-23T08:36:21;94782.66;;;22.14;58.33
50342;BME280;76053;42.682;23.286;2024-03-23T08:39:22;94784.22;;;22.15;57.96
50342;BME280;76053;42.682;23.286;2024-03-23T08:42:22;94784.22;;;22.15;58.47
50342;BME280;76053;42.682;23.286;2024-03-23T08:45:27;94781.09;;;22.16;57.95
50342;BME280;76053;42.682;23.286;2024-03-23T08:51:27;94777.19;;;22.17;58.15
50342;BME280;76053;42.682;23.286;2024-03-23T08:54:28;94763.19;;;22.19;58.52
50342;BME280;76053;42.682;23.286;2024-03-23T08:57:28;94761.63;;;22.18;58.48
50342;BME280;76053;42.682;23.286;2024-03-23T09:00:28;94759.69;;;22.18;58.45
50342;BME280;76053;42.682;23.286;2024-03-23T09:03:29;94753.84;;;22.20;58.40
50342;BME280;76053;42.682;23.286;2024-03-23T09:06:29;94754.63;;;22.20;58.42
50342;BME280;76053;42.682;23.286;2024-03-23T09:09:30;94749.94;;;22.21;58.46
50342;BME280;76053;42.682;23.286;2024-03-23T09:12:30;94742.56;;;22.21;58.65
50342;BME280;76053;42.682;23.286;2024-03-23T09:15:31;94738.63;;;22.22;58.13
50342;BME280;76053;42.682;23.286;2024-03-23T09:18:33;94741.75;;;22.24;58.42
50342;BME280;76053;42.682;23.286;2024-03-23T09:21:33;94736.28;;;22.24;58.43
50342;BME280;76053;42.682;23.286;2024-03-23T09:24:34;94726.97;;;22.25;58.18
50342;BME280;76053;42.682;23.286;2024-03-23T09:27:34;94721.88;;;22.27;58.37
50342;BME280;76053;42.682;23.286;2024-03-23T09:30:35;94719.53;;;22.29;58.23
50342;BME280;76053;42.682;23.286;2024-03-23T09:33:36;94715.22;;;22.32;58.04
50342;BME280;76053;42.682;23.286;2024-03-23T09:36:36;94703.16;;;22.33;58.34
50342;BME280;76053;42.682;23.286;2024-03-23T09:39:37;94705.47;;;22.35;58.28
50342;BME280;76053;42.682;23.286;2024-03-23T09:42:38;94702.34;;;22.36;58.34
50342;BME280;76053;42.682;23.286;2024-03-23T09:45:40;94689.09;;;22.38;58.30
50342;BME280;76053;42.682;23.286;2024-03-23T09:48:42;94683.66;;;22.38;58.07
50342;BME280;76053;42.682;23.286;2024-03-23T09:55:03;94675.47;;;22.38;57.99
50342;BME280;76053;42.682;23.286;2024-03-23T09:58:04;94672.75;;;22.38;58.37
50342;BME280;76053;42.682;23.286;2024-03-23T10:01:05;94668.47;;;22.41;58.50
50342;BME280;76053;42.682;23.286;2024-03-23T10:04:06;94664.97;;;22.40;57.97
50342;BME280;76053;42.682;23.286;2024-03-23T10:07:14;94664.19;;;22.40;58.00
50342;BME280;76053;42.682;23.286;2024-03-23T10:10:15;94660.66;;;22.43;58.21
50342;BME280;76053;42.682;23.286;2024-03-23T10:13:28;94648.63;;;22.40;58.11
50342;BME280;76053;42.682;23.286;2024-03-23T10:16:28;94649.34;;;22.44;58.04
50342;BME280;76053;42.682;23.286;2024-03-23T10:19:32;94637.69;;;22.44;58.21
50342;BME280;76053;42.682;23.286;2024-03-23T10:22:39;94645.13;;;22.40;58.59
50342;BME280;76053;42.682;23.286;2024-03-23T10:25:39;94641.78;;;22.25;58.43
50342;BME280;76053;42.682;23.286;2024-03-23T10:28:58;94637.78;;;22.33;57.74
50342;BME280;76053;42.682;23.286;2024-03-23T10:32:10;94632.38;;;22.29;54.68
50342;BME280;76053;42.682;23.286;2024-03-23T10:35:17;94622.31;;;22.26;53.98
50342;BME280;76053;42.682;23.286;2024-03-23T10:38:18;94618.44;;;22.24;54.64
50342;BME280;76053;42.682;23.286;2024-03-23T10:41:18;94611.81;;;22.25;54.35
50342;BME280;76053;42.682;23.286;2024-03-23T10:44:19;94609.44;;;22.27;55.12
50342;BME280;76053;42.682;23.286;2024-03-23T10:47:20;94601.28;;;22.27;54.98
50342;BME280;76053;42.682;23.286;2024-03-23T10:50:20;94584.59;;;22.25;54.08
50342;BME280;76053;42.682;23.286;2024-03-23T10:53:22;94580.75;;;22.19;52.99
50342;BME280;76053;42.682;23.286;2024-03-23T10:56:25;94569.53;;;22.13;52.68
50342;BME280;76053;42.682;23.286;2024-03-23T10:59:27;94564.59;;;22.05;52.69
50342;BME280;76053;42.682;23.286;2024-03-23T11:02:28;94556.03;;;22.03;52.08
50342;BME280;76053;42.682;23.286;2024-03-23T11:05:31;94553.00;;;21.97;51.23
50342;BME280;76053;42.682;23.286;2024-03-23T11:08:39;94549.16;;;21.87;50.27
50342;BME280;76053;42.682;23.286;2024-03-23T11:11:40;94539.84;;;21.88;50.86
50342;BME280;76053;42.682;23.286;2024-03-23T11:14:40;94523.91;;;21.87;50.49
50342;BME280;76053;42.682;23.286;2024-03-23T11:17:40;94524.28;;;21.89;50.35
50342;BME280;76053;42.682;23.286;2024-03-23T11:20:41;94522.72;;;21.92;49.91
50342;BME280;76053;42.682;23.286;2024-03-23T11:23:41;94521.16;;;21.90;47.11
50342;BME280;76053;42.682;23.286;2024-03-23T11:26:41;94517.28;;;21.88;45.73
50342;BME280;76053;42.682;23.286;2024-03-23T11:29:42;94507.22;;;21.85;45.83
50342;BME280;76053;42.682;23.286;2024-03-23T11:32:44;94511.50;;;21.82;47.04
50342;BME280;76053;42.682;23.286;2024-03-23T11:35:44;94501.41;;;21.83;47.76
50342;BME280;76053;42.682;23.286;2024-03-23T11:38:45;94497.91;;;21.86;47.93
50342;BME280;76053;42.682;23.286;2024-03-23T11:41:50;94495.19;;;21.86;47.79
50342;BME280;76053;42.682;23.286;2024-03-23T11:44:50;94479.56;;;21.90;48.29
50342;BME280;76053;42.682;23.286;2024-03-23T11:48:11;94479.25;;;21.84;50.04
50342;BME280;76053;42.682;23.286;2024-03-23T11:51:11;94469.03;;;21.96;51.51
50342;BME280;76053;42.682;23.286;2024-03-23T11:54:11;94466.28;;;21.99;51.54
50342;BME280;76053;42.682;23.286;2024-03-23T11:57:12;94460.78;;;22.03;51.49
50342;BME280;76053;42.682;23.286;2024-03-23T12:00:22;94445.66;;;22.02;52.71
50342;BME280;76053;42.682;23.286;2024-03-23T12:03:23;94439.69;;;22.10;52.25
50342;BME280;76053;42.682;23.286;2024-03-23T12:06:24;94430.25;;;22.18;52.05
50342;BME280;76053;42.682;23.286;2024-03-23T12:09:24;94424.75;;;22.22;51.79
50342;BME280;76053;42.682;23.286;2024-03-23T12:12:24;94427.44;;;22.25;51.99
50342;BME280;76053;42.682;23.286;2024-03-23T12:15:25;94421.94;;;22.29;51.46
50342;BME280;76053;42.682;23.286;2024-03-23T12:18:26;94412.94;;;22.32;51.48
50342;BME280;76053;42.682;23.286;2024-03-23T12:21:26;94413.31;;;22.34;50.95
50342;BME280;76053;42.682;23.286;2024-03-23T12:24:26;94413.69;;;22.36;50.72
50342;BME280;76053;42.682;23.286;2024-03-23T12:27:27;94405.53;;;22.36;49.57
50342;BME280;76053;42.682;23.286;2024-03-23T12:30:27;94403.25;;;22.31;49.28
50342;BME280;76053;42.682;23.286;2024-03-23T12:33:28;94400.53;;;22.31;49.35
50342;BME280;76053;42.682;23.286;2024-03-23T12:36:28;94389.66;;;22.31;48.76
50342;BME280;76053;42.682;23.286;2024-03-23T12:39:29;94377.97;;;22.30;49.11
50342;BME280;76053;42.682;23.286;2024-03-23T12:42:29;94377.22;;;22.30;48.67
50342;BME280;76053;42.682;23.286;2024-03-23T12:45:29;94377.16;;;22.33;48.37
50342;BME280;76053;42.682;23.286;2024-03-23T12:48:30;94381.03;;;22.32;48.93
50342;BME280;76053;42.682;23.286;2024-03-23T12:51:30;94373.25;;;22.35;48.88
50342;BME280;76053;42.682;23.286;2024-03-23T12:54:31;94362.28;;;22.38;48.76
50342;BME280;76053;42.682;23.286;2024-03-23T12:57:32;94356.38;;;22.43;48.49
50342;BME280;76053;42.682;23.286;2024-03-23T13:00:32;94351.34;;;22.42;48.60
50342;BME280;76053;42.682;23.286;2024-03-23T13:03:33;94349.03;;;22.40;47.69
50342;BME280;76053;42.682;23.286;2024-03-23T13:06:33;94348.34;;;22.36;45.47
50342;BME280;76053;42.682;23.286;2024-03-23T13:09:33;94356.13;;;22.34;45.59
50342;BME280;76053;42.682;23.286;2024-03-23T13:12:34;94340.63;;;22.31;46.06
50342;BME280;76053;42.682;23.286;2024-03-23T13:15:34;94334.41;;;22.30;46.22
50342;BME280;76053;42.682;23.286;2024-03-23T13:18:35;94332.09;;;22.29;46.54
50342;BME280;76053;42.682;23.286;2024-03-23T13:21:35;94324.31;;;22.27;46.34
50342;BME280;76053;42.682;23.286;2024-03-23T13:24:36;94322.03;;;22.26;46.45
50342;BME280;76053;42.682;23.286;2024-03-23T13:27:36;94324.00;;;22.25;46.29
50342;BME280;76053;42.682;23.286;2024-03-23T13:30:36;94311.19;;;22.22;46.78
50342;BME280;76053;42.682;23.286;2024-03-23T13:33:37;94316.22;;;22.24;46.35
50342;BME280;76053;42.682;23.286;2024-03-23T13:36:37;94312.72;;;22.23;46.63
50342;BME280;76053;42.682;23.286;2024-03-23T13:39:38;94309.22;;;22.23;46.62
50342;BME280;76053;42.682;23.286;2024-03-23T13:42:38;94306.94;;;22.21;46.48
50342;BME280;76053;42.682;23.286;2024-03-23T13:45:38;94304.25;;;22.18;46.76
50342;BME280;76053;42.682;23.286;2024-03-23T13:51:39;94291.47;;;22.15;46.35
50342;BME280;76053;42.682;23.286;2024-03-23T13:54:39;94286.81;;;22.15;46.23
50342;BME280;76053;42.682;23.286;2024-03-23T13:57:40;94282.53;;;22.14;46.41
50342;BME280;76053;42.682;23.286;2024-03-23T14:00:40;94277.09;;;22.14;46.36
50342;BME280;76053;42.682;23.286;2024-03-23T14:03:42;94280.59;;;22.15;46.43
50342;BME280;76053;42.682;23.286;2024-03-23T14:06:43;94278.63;;;22.15;46.33
50342;BME280;76053;42.682;23.286;2024-03-23T14:09:43;94273.22;;;22.12;46.35
50342;BME280;76053;42.682;23.286;2024-03-23T14:12:44;94267.03;;;22.11;46.54
50342;BME280;76053;42.682;23.286;2024-03-23T14:15:44;94272.50;;;22.11;45.95
50342;BME280;76053;42.682;23.286;2024-03-23T14:18:47;94266.69;;;22.09;45.99
50342;BME280;76053;42.682;23.286;2024-03-23T14:21:48;94260.81;;;22.11;46.17
50342;BME280;76053;42.682;23.286;2024-03-23T14:24:49;94258.50;;;22.09;46.41
50342;BME280;76053;42.682;23.286;2024-03-23T14:27:49;94253.47;;;22.08;46.37
50342;BME280;76053;42.682;23.286;2024-03-23T14:30:50;94249.97;;;22.07;45.93
50342;BME280;76053;42.682;23.286;2024-03-23T14:33:51;94245.72;;;22.06;45.77
50342;BME280;76053;42.682;23.286;2024-03-23T14:36:51;94250.03;;;22.04;46.22
50342;BME280;76053;42.682;23.286;2024-03-23T14:39:55;94250.03;;;22.04;45.61
50342;BME280;76053;42.682;23.286;2024-03-23T14:42:55;94243.03;;;22.03;45.90
50342;BME280;76053;42.682;23.286;2024-03-23T14:49:08;94245.38;;;22.04;45.95
50342;BME280;76053;42.682;23.286;2024-03-23T14:52:09;94243.03;;;22.03;45.96
50342;BME280;76053;42.682;23.286;2024-03-23T14:55:09;94229.88;;;22.01;45.91
50342;BME280;76053;42.682;23.286;2024-03-23T14:58:09;94234.53;;;22.01;46.02
50342;BME280;76053;42.682;23.286;2024-03-23T15:01:10;94223.22;;;22.02;46.15
50342;BME280;76053;42.682;23.286;2024-03-23T15:04:10;94219.75;;;22.02;45.72
50342;BME280;76053;42.682;23.286;2024-03-23T15:07:10;94211.16;;;22.03;45.92
50342;BME280;76053;42.682;23.286;2024-03-23T15:10:11;94219.31;;;22.03;45.85
50342;BME280;76053;42.682;23.286;2024-03-23T15:13:11;94218.22;;;22.01;45.84
50342;BME280;76053;42.682;23.286;2024-03-23T15:16:16;94206.56;;;22.00;45.47
50342;BME280;76053;42.682;23.286;2024-03-23T15:19:16;94217.78;;;22.02;45.60
50342;BME280;76053;42.682;23.286;2024-03-23T15:22:16;94199.94;;;22.01;45.79
50342;BME280;76053;42.682;23.286;2024-03-23T15:25:17;94204.59;;;22.01;45.90
50342;BME280;76053;42.682;23.286;2024-03-23T15:28:17;94207.66;;;22.03;45.80
50342;BME280;76053;42.682;23.286;2024-03-23T15:31:18;94205.38;;;22.01;45.77
50342;BME280;76053;42.682;23.286;2024-03-23T15:34:19;94210.81;;;22.01;45.67
50342;BME280;76053;42.682;23.286;2024-03-23T15:37:19;94215.91;;;21.99;45.51
50342;BME280;76053;42.682;23.286;2024-03-23T15:40:19;94202.69;;;21.98;45.53
50342;BME280;76053;42.682;23.286;2024-03-23T15:43:20;94204.25;;;21.99;45.32
50342;BME280;76053;42.682;23.286;2024-03-23T15:46:21;94203.47;;;21.98;45.55
50342;BME280;76053;42.682;23.286;2024-03-23T15:49:21;94191.47;;;21.96;45.15
50342;BME280;76053;42.682;23.286;2024-03-23T15:52:21;94201.91;;;21.97;45.35
50342;BME280;76053;42.682;23.286;2024-03-23T15:55:22;94197.69;;;21.96;45.67
50342;BME280;76053;42.682;23.286;2024-03-23T15:58:23;94187.97;;;21.95;45.20
50342;BME280;76053;42.682;23.286;2024-03-23T16:01:23;94198.84;;;21.95;45.35
50342;BME280;76053;42.682;23.286;2024-03-23T16:04:24;94202.75;;;21.94;45.28
50342;BME280;76053;42.682;23.286;2024-03-23T16:07:24;94190.31;;;21.93;45.20
50342;BME280;76053;42.682;23.286;2024-03-23T16:10:25;94190.72;;;21.92;45.14
50342;BME280;76053;42.682;23.286;2024-03-23T16:13:25;94193.84;;;21.90;45.38
50342;BME280;76053;42.682;23.286;2024-03-23T16:16:25;94188.03;;;21.88;45.16
50342;BME280;76053;42.682;23.286;2024-03-23T16:19:26;94195.09;;;21.85;45.65
50342;BME280;76053;42.682;23.286;2024-03-23T16:22:26;94193.19;;;21.82;45.29
50342;BME280;76053;42.682;23.286;2024-03-23T16:25:27;94195.13;;;21.82;45.34
50342;BME280;76053;42.682;23.286;2024-03-23T16:28:34;94194.78;;;21.80;45.37
50342;BME280;76053;42.682;23.286;2024-03-23T16:31:35;94194.41;;;21.78;45.45
50342;BME280;76053;42.682;23.286;2024-03-23T16:34:35;94193.72;;;21.74;45.58
50342;BME280;76053;42.682;23.286;2024-03-23T16:37:37;94191.00;;;21.74;45.14
50342;BME280;76053;42.682;23.286;2024-03-23T16:40:37;94200.31;;;21.73;45.49
50342;BME280;76053;42.682;23.286;2024-03-23T16:43:37;94196.84;;;21.72;45.67
50342;BME280;76053;42.682;23.286;2024-03-23T16:46:38;94194.56;;;21.71;45.67
50342;BME280;76053;42.682;23.286;2024-03-23T16:49:38;94191.47;;;21.69;45.84
50342;BME280;76053;42.682;23.286;2024-03-23T16:52:38;94189.56;;;21.66;45.63
50342;BME280;76053;42.682;23.286;2024-03-23T16:55:39;94196.97;;;21.65;45.66